Time,TemperatureF,DewpointF,PressureIn,WindDirection,WindDirectionDegrees,WindSpeedMPH,WindSpeedGustMPH,Humidity,HourlyPrecipIn,Conditions,Clouds,dailyrainin,SoftwareType,DateUTC
2013-07-14 00:00:00,71.4,69.0,30.27,NNE,16,0.0,0.0,93,0.00,,,0.00,weatherlink.com 1.10,2013-07-14 04:00:00,
2013-07-14 00:15:00,70.7,69.0,30.27,NNE,17,0.0,0.0,94,0.00,,,0.00,weatherlink.com 1.10,2013-07-14 04:15:00,
2013-07-14 00:29:00,70.2,69.0,30.28,NNE,16,0.0,0.0,95,0.00,,,0.00,weatherlink.com 1.10,2013-07-14 04:29:00,
2013-07-14 00:44:00,69.9,69.0,30.28,NNE,16,0.0,0.0,96,0.00,,,0.00,weatherlink.com 1.10,2013-07-14 04:44:00,
2013-07-14 00:58:00,69.7,69.0,30.28,NNE,17,0.0,0.0,96,0.00,,,0.00,weatherlink.com 1.10,2013-07-14 04:58:00,
2013-07-14 01:13:00,69.9,69.0,30.28,NNE,31,0.0,3.0,96,0.00,,,0.00,weatherlink.com 1.10,2013-07-14 05:13:00,
2013-07-14 01:27:00,69.9,69.0,30.28,NE,55,0.0,0.0,96,0.00,,,0.00,weatherlink.com 1.10,2013-07-14 05:27:00,
2013-07-14 01:42:00,69.6,69.0,30.28,NE,55,0.0,0.0,97,0.00,,,0.00,weatherlink.com 1.10,2013-07-14 05:42:00,
2013-07-14 01:56:00,69.3,68.0,30.28,NE,55,0.0,0.0,97,0.00,,,0.00,weatherlink.com 1.10,2013-07-14 05:56:00,
2013-07-14 02:11:00,69.0,68.0,30.28,NE,55,0.0,0.0,97,0.00,,,0.00,weatherlink.com 1.10,2013-07-14 06:11:00,
2013-07-14 02:25:00,68.6,68.0,30.28,NE,55,0.0,0.0,97,0.00,,,0.00,weatherlink.com 1.10,2013-07-14 06:25:00,
2013-07-14 02:39:00,68.3,68.0,30.28,NE,55,0.0,0.0,98,0.00,,,0.00,weatherlink.com 1.10,2013-07-14 06:39:00,
2013-07-14 02:54:00,68.1,68.0,30.28,NE,55,0.0,0.0,98,0.00,,,0.00,weatherlink.com 1.10,2013-07-14 06:54:00,
2013-07-14 03:09:00,68.0,67.0,30.29,NE,55,0.0,0.0,98,0.00,,,0.00,weatherlink.com 1.10,2013-07-14 07:09:00,
2013-07-14 03:23:00,67.9,67.0,30.29,NE,55,0.0,0.0,98,0.00,,,0.00,weatherlink.com 1.10,2013-07-14 07:23:00,
2013-07-14 03:37:00,67.8,67.0,30.29,NE,55,0.0,0.0,98,0.00,,,0.00,weatherlink.com 1.10,2013-07-14 07:37:00,
2013-07-14 03:52:00,67.5,67.0,30.29,NE,55,0.0,0.0,98,0.00,,,0.00,weatherlink.com 1.10,2013-07-14 07:52:00,
2013-07-14 04:06:00,67.3,67.0,30.30,NE,55,0.0,0.0,98,0.00,,,0.00,weatherlink.com 1.10,2013-07-14 08:06:00,
2013-07-14 04:21:00,67.3,67.0,30.30,NE,55,0.0,0.0,99,0.00,,,0.00,weatherlink.com 1.10,2013-07-14 08:21:00,
2013-07-14 04:35:00,67.6,67.0,30.30,NE,55,0.0,0.0,99,0.00,,,0.00,weatherlink.com 1.10,2013-07-14 08:35:00,
2013-07-14 04:49:00,67.8,68.0,30.30,NE,55,0.0,0.0,99,0.00,,,0.00,weatherlink.com 1.10,2013-07-14 08:49:00,
2013-07-14 05:04:00,68.0,68.0,30.30,NE,55,0.0,0.0,99,0.00,,,0.00,weatherlink.com 1.10,2013-07-14 09:04:00,
2013-07-14 05:18:00,68.1,68.0,30.30,NE,55,0.0,0.0,99,0.00,,,0.00,weatherlink.com 1.10,2013-07-14 09:18:00,
2013-07-14 05:33:00,68.2,68.0,30.31,NE,55,0.0,0.0,99,0.00,,,0.00,weatherlink.com 1.10,2013-07-14 09:33:00,
2013-07-14 05:47:00,68.3,68.0,30.31,NE,55,0.0,0.0,98,0.00,,,0.00,weatherlink.com 1.10,2013-07-14 09:47:00,
2013-07-14 06:02:00,68.4,68.0,30.32,NE,55,0.0,0.0,98,0.00,,,0.00,weatherlink.com 1.10,2013-07-14 10:02:00,
2013-07-14 06:16:00,68.6,68.0,30.32,NE,55,0.0,0.0,98,0.00,,,0.00,weatherlink.com 1.10,2013-07-14 10:16:00,
2013-07-14 06:31:00,69.0,68.0,30.32,NE,55,0.0,0.0,98,0.00,,,0.00,weatherlink.com 1.10,2013-07-14 10:31:00,
2013-07-14 06:45:00,69.4,69.0,30.32,NE,55,0.0,0.0,97,0.00,,,0.00,weatherlink.com 1.10,2013-07-14 10:45:00,
2013-07-14 06:59:00,69.9,69.0,30.32,NE,55,0.0,0.0,97,0.00,,,0.00,weatherlink.com 1.10,2013-07-14 10:59:00,
2013-07-14 07:14:00,70.5,69.0,30.33,NE,55,0.0,0.0,96,0.00,,,0.00,weatherlink.com 1.10,2013-07-14 11:14:00,
2013-07-14 07:28:00,71.1,70.0,30.33,NE,55,0.0,0.0,95,0.00,,,0.00,weatherlink.com 1.10,2013-07-14 11:28:00,
2013-07-14 07:43:00,71.6,70.0,30.33,NE,55,0.0,0.0,94,0.00,,,0.00,weatherlink.com 1.10,2013-07-14 11:43:00,
2013-07-14 07:57:00,72.2,70.0,30.33,NE,55,0.0,0.0,94,0.00,,,0.00,weatherlink.com 1.10,2013-07-14 11:57:00,
2013-07-14 08:12:00,72.8,71.0,30.33,NE,55,0.0,0.0,93,0.00,,,0.00,weatherlink.com 1.10,2013-07-14 12:12:00,
2013-07-14 08:26:00,73.8,72.0,30.33,NE,55,0.0,1.0,93,0.00,,,0.00,weatherlink.com 1.10,2013-07-14 12:26:00,
2013-07-14 08:41:00,74.9,71.0,30.33,NE,55,0.0,0.0,89,0.00,,,0.00,weatherlink.com 1.10,2013-07-14 12:41:00,
2013-07-14 08:55:00,76.1,73.0,30.32,ENE,58,0.0,1.0,89,0.00,,,0.00,weatherlink.com 1.10,2013-07-14 12:55:00,
2013-07-14 09:10:00,77.9,73.0,30.33,WNW,290,0.0,2.0,85,0.00,,,0.00,weatherlink.com 1.10,2013-07-14 13:10:00,
2013-07-14 09:25:00,78.4,71.0,30.33,NE,53,0.0,2.0,79,0.00,,,0.00,weatherlink.com 1.10,2013-07-14 13:25:00,
2013-07-14 09:39:00,79.5,72.0,30.32,West,276,0.0,3.0,78,0.00,,,0.00,weatherlink.com 1.10,2013-07-14 13:39:00,
2013-07-14 09:54:00,81.2,73.0,30.32,West,271,1.0,3.0,75,0.00,,,0.00,weatherlink.com 1.10,2013-07-14 13:54:00,
2013-07-14 10:08:00,81.8,73.0,30.31,West,268,0.0,3.0,76,0.00,,,0.00,weatherlink.com 1.10,2013-07-14 14:08:00,
2013-07-14 10:23:00,82.8,72.0,30.31,WNW,288,0.0,6.0,69,0.00,,,0.00,weatherlink.com 1.10,2013-07-14 14:23:00,
2013-07-14 10:37:00,83.1,71.0,30.31,West,262,0.0,4.0,68,0.00,,,0.00,weatherlink.com 1.10,2013-07-14 14:37:00,
2013-07-14 10:51:00,82.3,72.0,30.32,WNW,286,0.0,5.0,70,0.00,,,0.00,weatherlink.com 1.10,2013-07-14 14:51:00,
2013-07-14 11:06:00,81.6,72.0,30.31,WSW,250,0.0,2.0,73,0.00,,,0.00,weatherlink.com 1.10,2013-07-14 15:06:00,
2013-07-14 11:20:00,83.8,73.0,30.31,West,281,0.0,2.0,70,0.00,,,0.00,weatherlink.com 1.10,2013-07-14 15:20:00,
2013-07-14 11:35:00,85.0,73.0,30.31,WSW,253,2.0,2.0,67,0.00,,,0.00,weatherlink.com 1.10,2013-07-14 15:35:00,
2013-07-14 11:49:00,85.1,71.0,30.31,NNW,338,0.0,4.0,63,0.00,,,0.00,weatherlink.com 1.10,2013-07-14 15:49:00,
2013-07-14 12:04:00,85.9,71.0,30.31,NW,318,0.0,4.0,61,0.00,,,0.00,weatherlink.com 1.10,2013-07-14 16:04:00,
2013-07-14 12:18:00,86.5,71.0,30.30,West,278,0.0,4.0,60,0.00,,,0.00,weatherlink.com 1.10,2013-07-14 16:18:00,
2013-07-14 12:33:00,86.9,75.0,30.30,SE,139,0.0,1.0,68,0.00,,,0.00,weatherlink.com 1.10,2013-07-14 16:33:00,
2013-07-14 12:47:00,88.2,74.0,30.30,West,276,0.0,2.0,64,0.00,,,0.00,weatherlink.com 1.10,2013-07-14 16:47:00,
2013-07-14 13:02:00,86.6,71.0,30.29,WSW,257,0.0,2.0,59,0.00,,,0.00,weatherlink.com 1.10,2013-07-14 17:02:00,
2013-07-14 13:16:00,87.0,71.0,30.29,WSW,258,0.0,1.0,60,0.00,,,0.00,weatherlink.com 1.10,2013-07-14 17:16:00,
2013-07-14 13:30:00,88.6,72.0,30.29,WSW,252,1.0,3.0,58,0.00,,,0.00,weatherlink.com 1.10,2013-07-14 17:30:00,
2013-07-14 13:45:00,89.5,71.0,30.29,West,260,0.0,3.0,54,0.00,,,0.00,weatherlink.com 1.10,2013-07-14 17:45:00,
2013-07-14 13:59:00,89.0,69.0,30.28,WSW,246,2.0,5.0,52,0.00,,,0.00,weatherlink.com 1.10,2013-07-14 17:59:00,
2013-07-14 14:14:00,88.7,69.0,30.28,WNW,297,0.0,4.0,53,0.00,,,0.00,weatherlink.com 1.10,2013-07-14 18:14:00,
2013-07-14 14:28:00,88.8,69.0,30.28,West,259,1.0,3.0,52,0.00,,,0.00,weatherlink.com 1.10,2013-07-14 18:28:00,
2013-07-14 14:43:00,89.6,68.0,30.28,West,263,1.0,4.0,49,0.00,,,0.00,weatherlink.com 1.10,2013-07-14 18:43:00,
2013-07-14 14:57:00,87.9,70.0,30.27,West,264,3.0,4.0,55,0.00,,,0.00,weatherlink.com 1.10,2013-07-14 18:57:00,
2013-07-14 15:12:00,89.6,70.0,30.27,West,274,2.0,5.0,53,0.00,,,0.00,weatherlink.com 1.10,2013-07-14 19:12:00,
2013-07-14 15:26:00,89.4,70.0,30.27,WSW,238,1.0,3.0,53,0.00,,,0.00,weatherlink.com 1.10,2013-07-14 19:26:00,
2013-07-14 15:41:00,89.1,70.0,30.27,NNE,25,1.0,9.0,54,0.00,,,0.00,weatherlink.com 1.10,2013-07-14 19:41:00,
2013-07-14 15:55:00,89.1,70.0,30.27,NNW,334,1.0,7.0,53,0.00,,,0.00,weatherlink.com 1.10,2013-07-14 19:55:00,
2013-07-14 16:10:00,89.4,70.0,30.26,WSW,238,0.0,3.0,53,0.00,,,0.00,weatherlink.com 1.10,2013-07-14 20:10:00,
2013-07-14 16:24:00,89.6,70.0,30.26,NW,320,0.0,3.0,52,0.00,,,0.00,weatherlink.com 1.10,2013-07-14 20:24:00,
2013-07-14 16:38:00,90.1,70.0,30.26,WSW,252,1.0,5.0,51,0.00,,,0.00,weatherlink.com 1.10,2013-07-14 20:38:00,
2013-07-14 16:53:00,90.4,71.0,30.25,WNW,294,0.0,2.0,54,0.00,,,0.00,weatherlink.com 1.10,2013-07-14 20:53:00,
2013-07-14 17:07:00,90.6,71.0,30.25,North,356,0.0,3.0,52,0.00,,,0.00,weatherlink.com 1.10,2013-07-14 21:07:00,
2013-07-14 17:22:00,90.2,73.0,30.25,West,266,1.0,3.0,57,0.00,,,0.00,weatherlink.com 1.10,2013-07-14 21:22:00,
2013-07-14 17:36:00,89.1,71.0,30.25,NW,307,0.0,4.0,56,0.00,,,0.00,weatherlink.com 1.10,2013-07-14 21:36:00,
2013-07-14 17:51:00,88.6,70.0,30.25,WSW,252,0.0,2.0,55,0.00,,,0.00,weatherlink.com 1.10,2013-07-14 21:51:00,
2013-07-14 18:05:00,88.3,70.0,30.25,WNW,302,1.0,2.0,55,0.00,,,0.00,weatherlink.com 1.10,2013-07-14 22:05:00,
2013-07-14 18:19:00,87.8,72.0,30.25,WSW,239,2.0,4.0,59,0.00,,,0.00,weatherlink.com 1.10,2013-07-14 22:19:00,
2013-07-14 18:34:00,87.6,70.0,30.25,NW,320,0.0,2.0,57,0.00,,,0.00,weatherlink.com 1.10,2013-07-14 22:34:00,
2013-07-14 18:48:00,87.3,71.0,30.24,NW,320,0.0,1.0,58,0.00,,,0.00,weatherlink.com 1.10,2013-07-14 22:48:00,
2013-07-14 19:03:00,87.0,70.0,30.25,ENE,68,1.0,2.0,58,0.00,,,0.00,weatherlink.com 1.10,2013-07-14 23:03:00,
2013-07-14 19:17:00,86.6,72.0,30.24,NNE,22,3.0,3.0,62,0.00,,,0.00,weatherlink.com 1.10,2013-07-14 23:17:00,
2013-07-14 19:32:00,85.7,73.0,30.24,NNE,32,0.0,3.0,66,0.00,,,0.00,weatherlink.com 1.10,2013-07-14 23:32:00,
2013-07-14 19:46:00,85.1,74.0,30.24,North,2,0.0,3.0,69,0.00,,,0.00,weatherlink.com 1.10,2013-07-14 23:46:00,
2013-07-14 20:01:00,84.1,73.0,30.25,North,349,0.0,3.0,70,0.00,,,0.00,weatherlink.com 1.10,2013-07-15 00:01:00,
2013-07-14 20:15:00,83.6,73.0,30.25,NE,46,0.0,2.0,70,0.00,,,0.00,weatherlink.com 1.10,2013-07-15 00:15:00,
2013-07-14 20:30:00,82.5,73.0,30.25,NE,46,0.0,0.0,74,0.00,,,0.00,weatherlink.com 1.10,2013-07-15 00:30:00,
2013-07-14 20:44:00,81.4,73.0,30.25,NE,46,0.0,0.0,76,0.00,,,0.00,weatherlink.com 1.10,2013-07-15 00:44:00,
2013-07-14 20:58:00,80.4,73.0,30.25,NE,46,0.0,0.0,78,0.00,,,0.00,weatherlink.com 1.10,2013-07-15 00:58:00,
2013-07-14 21:13:00,79.7,73.0,30.25,NE,46,0.0,0.0,80,0.00,,,0.00,weatherlink.com 1.10,2013-07-15 01:13:00,
2013-07-14 21:28:00,79.6,73.0,30.26,NE,46,0.0,0.0,80,0.00,,,0.00,weatherlink.com 1.10,2013-07-15 01:28:00,
2013-07-14 21:42:00,79.4,73.0,30.26,NE,46,0.0,0.0,80,0.00,,,0.00,weatherlink.com 1.10,2013-07-15 01:42:00,
2013-07-14 21:56:00,78.9,73.0,30.26,NE,46,0.0,0.0,81,0.00,,,0.00,weatherlink.com 1.10,2013-07-15 01:56:00,
2013-07-14 22:11:00,78.4,72.0,30.26,NE,46,0.0,0.0,82,0.00,,,0.00,weatherlink.com 1.10,2013-07-15 02:11:00,
2013-07-14 22:25:00,77.9,72.0,30.26,NE,46,0.0,0.0,83,0.00,,,0.00,weatherlink.com 1.10,2013-07-15 02:25:00,
2013-07-14 22:40:00,77.3,72.0,30.26,NE,46,0.0,0.0,85,0.00,,,0.00,weatherlink.com 1.10,2013-07-15 02:40:00,
2013-07-14 22:54:00,76.8,72.0,30.26,NE,46,0.0,0.0,86,0.00,,,0.00,weatherlink.com 1.10,2013-07-15 02:54:00,
2013-07-14 23:09:00,76.2,72.0,30.26,NE,46,0.0,0.0,88,0.00,,,0.00,weatherlink.com 1.10,2013-07-15 03:09:00,
2013-07-14 23:23:00,75.7,72.0,30.26,NE,46,0.0,0.0,89,0.00,,,0.00,weatherlink.com 1.10,2013-07-15 03:23:00,
2013-07-14 23:38:00,75.3,72.0,30.26,NE,46,0.0,0.0,90,0.00,,,0.00,weatherlink.com 1.10,2013-07-15 03:38:00,
2013-07-14 23:52:00,75.1,72.0,30.26,NE,46,0.0,0.0,91,0.00,,,0.00,weatherlink.com 1.10,2013-07-15 03:52:00,